Time;durP1;ratioP1;P1;durP2;ratioP2;P2;SDS_P1;SDS_P2;PMS_P1;PMS_P2;Temp;Humidity;BMP_temperature;BMP_pressure;BME280_temperature;BME280_humidity;BME280_pressure;Samples;Min_cycle;Max_cycle;Signal;HPM_P1;HPM_P2
2023/01/13 00:02:17;;;;;;;23.38;3.15;;;;;;;;;;6290279;22;20909;-81
2023/01/13 00:04:45;;;;;;;26.08;3.92;;;;;;;;;;6289443;22;20008;-81
2023/01/13 00:07:11;;;;;;;22.38;3.22;;;;;;;;;;6288023;22;20098;-81
2023/01/13 00:09:37;;;;;;;21.58;3.00;;;;;;;;;;6288321;22;20026;-81
2023/01/13 00:12:06;;;;;;;20.33;3.15;;;;;;;;;;6289586;22;20026;-81
2023/01/13 00:14:36;;;;;;;21.15;3.35;;;;;;;;;;6262415;22;20674;-81
2023/01/13 00:17:03;;;;;;;23.42;3.75;;;;;;;;;;6289308;22;20105;-81
2023/01/13 00:19:29;;;;;;;24.70;4.90;;;;;;;;;;6288292;22;20923;-82
2023/01/13 00:21:55;;;;;;;30.42;3.97;;;;;;;;;;6289782;22;20026;-82
2023/01/13 00:24:22;;;;;;;28.08;3.92;;;;;;;;;;6288769;22;20014;-82
2023/01/13 00:26:48;;;;;;;25.35;3.72;;;;;;;;;;6288791;22;20042;-81
2023/01/13 00:29:14;;;;;;;22.75;2.83;;;;;;;;;;6286313;22;20012;-82
2023/01/13 00:31:41;;;;;;;25.35;3.35;;;;;;;;;;6287588;22;20064;-81
2023/01/13 00:34:07;;;;;;;28.63;3.25;;;;;;;;;;6288131;22;20803;-81
2023/01/13 00:36:34;;;;;;;26.42;4.28;;;;;;;;;;6288232;22;20019;-82
2023/01/13 00:39:00;;;;;;;26.95;3.08;;;;;;;;;;6286846;22;20018;-82
2023/01/13 00:41:26;;;;;;;21.42;3.42;;;;;;;;;;6289351;22;20070;-81
2023/01/13 00:43:53;;;;;;;20.90;2.97;;;;;;;;;;6262014;22;20019;-81
2023/01/13 00:46:20;;;;;;;28.30;3.92;;;;;;;;;;6289686;22;20028;-82
2023/01/13 00:48:53;;;;;;;25.98;2.78;;;;;;;;;;6287374;22;20012;-81
2023/01/13 00:51:19;;;;;;;19.65;3.33;;;;;;;;;;6260861;22;20251;-82
2023/01/13 00:53:47;;;;;;;27.52;3.50;;;;;;;;;;6286737;22;20473;-81
2023/01/13 00:56:15;;;;;;;21.98;3.05;;;;;;;;;;6288173;22;20028;-83
2023/01/13 00:58:45;;;;;;;26.98;3.55;;;;;;;;;;6286980;22;20035;-82
2023/01/13 01:01:15;;;;;;;19.90;3.45;;;;;;;;;;6287214;22;20099;-82
2023/01/13 01:03:42;;;;;;;19.80;2.92;;;;;;;;;;6287288;22;20054;-83
2023/01/13 01:06:11;;;;;;;22.00;3.30;;;;;;;;;;6261808;22;20034;-82
2023/01/13 01:08:38;;;;;;;20.30;3.05;;;;;;;;;;6286847;22;20026;-83
2023/01/13 01:11:06;;;;;;;25.00;3.80;;;;;;;;;;6287911;22;20028;-84
2023/01/13 01:13:32;;;;;;;24.77;3.42;;;;;;;;;;6286602;22;20028;-83
2023/01/13 01:15:59;;;;;;;24.27;3.10;;;;;;;;;;6288049;22;20016;-83
2023/01/13 01:18:25;;;;;;;17.10;2.70;;;;;;;;;;6259541;22;20028;-83
2023/01/13 01:20:51;;;;;;;21.58;3.67;;;;;;;;;;6287882;22;20016;-83
2023/01/13 01:23:18;;;;;;;17.58;3.05;;;;;;;;;;6260675;22;20085;-82
2023/01/13 01:25:44;;;;;;;22.63;3.13;;;;;;;;;;6288040;22;20024;-82
2023/01/13 01:28:10;;;;;;;21.60;3.15;;;;;;;;;;6287250;22;20027;-81
2023/01/13 01:30:37;;;;;;;25.55;2.78;;;;;;;;;;6259286;22;20024;-81
2023/01/13 01:33:04;;;;;;;22.17;2.70;;;;;;;;;;6286000;22;20016;-82
2023/01/13 01:35:30;;;;;;;27.10;3.63;;;;;;;;;;6286242;22;20178;-83
2023/01/13 01:37:56;;;;;;;27.95;3.15;;;;;;;;;;6285943;22;20008;-81
2023/01/13 01:40:25;;;;;;;19.38;2.80;;;;;;;;;;6259717;22;20435;-82
2023/01/13 01:45:36;;;;;;;30.08;3.22;;;;;;;;;;6288180;22;20015;-82
2023/01/13 01:48:03;;;;;;;29.52;3.42;;;;;;;;;;6288022;22;20016;-83
2023/01/13 01:50:30;;;;;;;23.65;2.90;;;;;;;;;;6261512;22;20036;-83
2023/01/13 01:53:00;;;;;;;29.92;3.85;;;;;;;;;;6286874;22;20063;-82
2023/01/13 01:55:30;;;;;;;27.27;3.75;;;;;;;;;;6263243;22;20533;-82
2023/01/13 01:58:04;;;;;;;22.63;3.05;;;;;;;;;;6261028;22;20012;-83
2023/01/13 02:00:30;;;;;;;21.80;3.83;;;;;;;;;;6266984;22;20024;-83
2023/01/13 02:02:58;;;;;;;25.30;3.45;;;;;;;;;;6287409;22;20032;-83
2023/01/13 02:05:24;;;;;;;20.48;3.00;;;;;;;;;;6287640;22;20032;-81
2023/01/13 02:07:52;;;;;;;27.15;3.33;;;;;;;;;;6284435;22;20020;-82
2023/01/13 02:10:22;;;;;;;27.75;3.22;;;;;;;;;;6286853;22;20091;-83
2023/01/13 02:12:49;;;;;;;21.52;3.30;;;;;;;;;;6288235;22;20034;-82
2023/01/13 02:15:25;;;;;;;24.85;3.22;;;;;;;;;;6288519;22;20063;-83
2023/01/13 02:18:17;;;;;;;33.63;4.70;;;;;;;;;;6286203;22;20014;-83
2023/01/13 02:20:44;;;;;;;23.58;3.75;;;;;;;;;;6264757;22;20731;-84
2023/01/13 02:26:34;;;;;;;28.67;3.63;;;;;;;;;;6289024;22;20008;-83
2023/01/13 02:32:11;;;;;;;36.65;3.60;;;;;;;;;;6289284;22;20020;-83
2023/01/13 02:34:40;;;;;;;25.80;3.53;;;;;;;;;;6289158;22;20024;-81
2023/01/13 02:37:13;;;;;;;16.60;3.00;;;;;;;;;;6290785;22;20012;-83
2023/01/13 02:39:54;;;;;;;31.45;3.17;;;;;;;;;;6288186;22;20034;-82
2023/01/13 02:45:32;;;;;;;31.50;3.58;;;;;;;;;;6286389;22;20026;-81
2023/01/13 02:48:01;;;;;;;22.50;3.58;;;;;;;;;;6286624;22;20027;-82
2023/01/13 02:50:29;;;;;;;23.13;3.47;;;;;;;;;;6288112;22;20021;-83
2023/01/13 02:53:15;;;;;;;22.30;3.50;;;;;;;;;;6287191;22;20054;-83
2023/01/13 02:55:51;;;;;;;22.42;3.10;;;;;;;;;;6287317;22;20004;-83
2023/01/13 02:58:22;;;;;;;29.23;3.45;;;;;;;;;;6287901;22;20096;-84
2023/01/13 03:00:49;;;;;;;20.17;3.08;;;;;;;;;;6286300;22;20000;-81
2023/01/13 03:03:16;;;;;;;22.92;2.92;;;;;;;;;;6260624;22;20063;-82
2023/01/13 03:05:43;;;;;;;25.27;3.55;;;;;;;;;;6285692;22;20032;-83
2023/01/13 03:08:14;;;;;;;32.30;3.72;;;;;;;;;;6287197;22;20016;-82
2023/01/13 03:10:59;;;;;;;28.38;3.97;;;;;;;;;;6287287;22;20020;-82
2023/01/13 03:13:41;;;;;;;22.45;3.22;;;;;;;;;;6288632;22;20043;-83
2023/01/13 03:16:16;;;;;;;17.73;2.83;;;;;;;;;;6285862;22;20009;-84
2023/01/13 03:19:01;;;;;;;22.27;3.20;;;;;;;;;;6261369;22;20020;-83
2023/01/13 03:21:47;;;;;;;20.08;3.53;;;;;;;;;;6287840;22;20012;-84
2023/01/13 03:24:20;;;;;;;27.55;3.67;;;;;;;;;;6286534;22;20020;-83
2023/01/13 03:26:49;;;;;;;23.55;3.17;;;;;;;;;;6285761;22;20047;-81
2023/01/13 03:29:19;;;;;;;22.25;3.75;;;;;;;;;;6286429;22;20031;-83
2023/01/13 03:31:52;;;;;;;26.65;3.15;;;;;;;;;;6260980;22;20013;-81
2023/01/13 03:34:20;;;;;;;23.27;3.17;;;;;;;;;;6260119;22;20019;-81
2023/01/13 03:36:48;;;;;;;20.65;2.85;;;;;;;;;;6258954;22;20024;-81
2023/01/13 03:39:18;;;;;;;27.77;3.50;;;;;;;;;;6285767;22;20020;-81
2023/01/13 03:41:50;;;;;;;23.20;3.42;;;;;;;;;;6285803;22;20040;-83
2023/01/13 03:44:22;;;;;;;22.92;3.15;;;;;;;;;;6286270;22;20024;-83
2023/01/13 03:46:57;;;;;;;21.83;3.00;;;;;;;;;;6287541;22;20021;-83
2023/01/13 03:49:25;;;;;;;21.25;2.92;;;;;;;;;;6259704;22;20031;-81
2023/01/13 03:51:55;;;;;;;24.42;2.65;;;;;;;;;;6286395;22;20032;-82
2023/01/13 03:54:23;;;;;;;21.60;2.75;;;;;;;;;;6261237;22;20031;-84
2023/01/13 03:56:55;;;;;;;25.75;3.75;;;;;;;;;;6285686;22;20031;-83
2023/01/13 03:59:30;;;;;;;21.88;3.03;;;;;;;;;;6286844;22;20012;-83
2023/01/13 04:01:59;;;;;;;19.27;2.80;;;;;;;;;;6286537;22;20031;-83
2023/01/13 04:04:32;;;;;;;15.35;2.15;;;;;;;;;;6260882;22;20024;-83
2023/01/13 04:07:02;;;;;;;20.00;2.50;;;;;;;;;;6286510;22;20079;-81
2023/01/13 04:09:47;;;;;;;20.52;2.83;;;;;;;;;;6283973;22;20107;-81
2023/01/13 04:12:17;;;;;;;16.70;2.05;;;;;;;;;;6259781;22;20016;-82
2023/01/13 04:14:44;;;;;;;15.02;2.17;;;;;;;;;;6286941;22;20287;-83
2023/01/13 04:17:10;;;;;;;16.02;2.60;;;;;;;;;;6286013;22;20024;-83
2023/01/13 04:19:37;;;;;;;16.52;2.38;;;;;;;;;;6285648;22;20020;-82
2023/01/13 04:22:03;;;;;;;13.93;2.17;;;;;;;;;;6287690;22;20078;-83
2023/01/13 04:24:29;;;;;;;17.90;2.20;;;;;;;;;;6286054;22;20019;-83
2023/01/13 04:26:56;;;;;;;13.70;2.10;;;;;;;;;;6286251;22;20036;-82
2023/01/13 04:29:23;;;;;;;19.92;3.00;;;;;;;;;;6283778;22;20008;-83
2023/01/13 04:31:49;;;;;;;11.15;1.63;;;;;;;;;;6283166;22;20030;-82
2023/01/13 04:34:16;;;;;;;15.68;2.08;;;;;;;;;;6285513;22;20022;-82
2023/01/13 04:36:43;;;;;;;13.55;1.75;;;;;;;;;;6259813;22;20916;-82
2023/01/13 04:39:10;;;;;;;12.02;1.50;;;;;;;;;;6258241;22;20043;-82
2023/01/13 04:44:21;;;;;;;9.95;1.25;;;;;;;;;;6286593;22;20009;-84
2023/01/13 04:46:47;;;;;;;14.15;1.80;;;;;;;;;;6286277;22;20028;-82
2023/01/13 04:49:14;;;;;;;12.45;1.45;;;;;;;;;;6287987;22;20027;-83
2023/01/13 04:51:40;;;;;;;8.80;1.40;;;;;;;;;;6287166;22;20020;-83
2023/01/13 04:54:08;;;;;;;11.02;1.20;;;;;;;;;;6260643;22;20023;-82
2023/01/13 04:56:34;;;;;;;7.75;1.17;;;;;;;;;;6286241;22;20035;-83
2023/01/13 04:59:01;;;;;;;7.93;1.05;;;;;;;;;;6257998;22;20016;-83
2023/01/13 05:01:27;;;;;;;12.50;1.48;;;;;;;;;;6286070;22;20019;-83
2023/01/13 05:03:53;;;;;;;9.77;1.52;;;;;;;;;;6287897;22;20088;-82
2023/01/13 05:06:20;;;;;;;13.23;1.38;;;;;;;;;;6261812;22;20043;-82
2023/01/13 05:08:46;;;;;;;10.77;1.30;;;;;;;;;;6288075;22;20020;-83
2023/01/13 05:17:02;;;;;;;12.00;1.70;;;;;;;;;;6288732;22;20012;-83
2023/01/13 05:19:32;;;;;;;12.07;1.48;;;;;;;;;;6262572;22;20023;-83
2023/01/13 05:27:29;;;;;;;13.73;1.75;;;;;;;;;;6289528;22;20034;-83
2023/01/13 05:29:56;;;;;;;12.50;1.75;;;;;;;;;;6289015;22;20075;-84
2023/01/13 05:32:23;;;;;;;11.63;1.60;;;;;;;;;;6291040;22;20031;-84
2023/01/13 05:34:49;;;;;;;11.98;1.88;;;;;;;;;;6289208;22;20035;-83
2023/01/13 05:37:16;;;;;;;12.40;1.73;;;;;;;;;;6287681;22;20417;-83
2023/01/13 05:45:12;;;;;;;13.05;1.75;;;;;;;;;;6289254;22;20031;-83
2023/01/13 05:47:39;;;;;;;14.73;1.70;;;;;;;;;;6288283;22;20068;-84
2023/01/13 05:50:05;;;;;;;19.13;2.22;;;;;;;;;;6288429;22;20082;-85
2023/01/13 05:52:32;;;;;;;12.13;1.83;;;;;;;;;;6289972;22;20012;-83
2023/01/13 05:54:58;;;;;;;13.13;2.15;;;;;;;;;;6261722;22;20043;-84
2023/01/13 05:57:24;;;;;;;12.73;1.85;;;;;;;;;;6287990;22;20048;-82
2023/01/13 05:59:51;;;;;;;10.25;1.60;;;;;;;;;;6288882;22;20094;-84
2023/01/13 06:02:17;;;;;;;11.93;2.20;;;;;;;;;;6266461;22;20020;-84
2023/01/13 06:04:44;;;;;;;12.77;1.70;;;;;;;;;;6287304;22;20023;-84
2023/01/13 06:07:11;;;;;;;7.25;1.60;;;;;;;;;;6286391;22;20035;-83
2023/01/13 06:09:37;;;;;;;14.98;1.92;;;;;;;;;;6285350;22;20020;-81
2023/01/13 06:12:04;;;;;;;11.25;1.98;;;;;;;;;;6285931;22;20035;-83
2023/01/13 06:14:39;;;;;;;15.00;1.77;;;;;;;;;;6290456;22;20070;-83
2023/01/13 06:17:09;;;;;;;11.63;2.00;;;;;;;;;;6287395;22;20115;-82
2023/01/13 06:19:36;;;;;;;10.20;1.77;;;;;;;;;;6287531;22;20020;-82
2023/01/13 06:22:09;;;;;;;19.00;2.63;;;;;;;;;;6284507;22;20076;-84
2023/01/13 06:24:35;;;;;;;21.80;2.42;;;;;;;;;;6287255;22;20844;-82
2023/01/13 06:27:03;;;;;;;12.40;1.50;;;;;;;;;;6286125;22;20012;-83
2023/01/13 06:29:29;;;;;;;13.85;2.00;;;;;;;;;;6286610;22;20027;-83
2023/01/13 06:31:56;;;;;;;17.25;2.60;;;;;;;;;;6286210;22;20032;-83
2023/01/13 06:34:22;;;;;;;13.90;1.52;;;;;;;;;;6287246;22;20832;-83
2023/01/13 06:36:51;;;;;;;11.57;1.70;;;;;;;;;;6286551;22;20280;-83
2023/01/13 06:39:19;;;;;;;17.27;1.98;;;;;;;;;;6259431;22;20457;-83
2023/01/13 06:44:32;;;;;;;14.07;1.83;;;;;;;;;;6285827;22;20535;-84
2023/01/13 06:46:58;;;;;;;22.48;2.40;;;;;;;;;;6285608;22;20023;-82
2023/01/13 06:49:25;;;;;;;20.35;2.78;;;;;;;;;;6287684;22;20027;-83
2023/01/13 06:51:51;;;;;;;15.02;2.65;;;;;;;;;;6290407;22;20015;-84
2023/01/13 06:54:17;;;;;;;12.57;1.70;;;;;;;;;;6291656;22;20020;-85
2023/01/13 06:56:44;;;;;;;12.20;1.92;;;;;;;;;;6289389;22;20020;-83
2023/01/13 06:59:10;;;;;;;11.32;2.20;;;;;;;;;;6287365;22;20532;-83
2023/01/13 07:01:36;;;;;;;13.18;1.70;;;;;;;;;;6291279;22;20012;-85
2023/01/13 07:04:03;;;;;;;17.85;2.28;;;;;;;;;;6261929;22;20012;-84
2023/01/13 07:06:30;;;;;;;16.58;2.25;;;;;;;;;;6288490;22;20148;-84
2023/01/13 07:08:56;;;;;;;13.02;2.90;;;;;;;;;;6286154;22;20024;-84
2023/01/13 07:11:23;;;;;;;15.10;2.22;;;;;;;;;;6291449;22;20009;-84
2023/01/13 07:16:35;;;;;;;13.98;2.63;;;;;;;;;;6293287;22;20058;-84
2023/01/13 07:19:02;;;;;;;15.85;2.33;;;;;;;;;;6292794;22;20031;-85
2023/01/13 07:21:28;;;;;;;18.80;2.45;;;;;;;;;;6293125;22;20042;-84
2023/01/13 07:23:55;;;;;;;19.27;2.55;;;;;;;;;;6268343;22;20032;-85
2023/01/13 07:26:21;;;;;;;15.50;2.03;;;;;;;;;;6266215;22;20023;-85
2023/01/13 07:28:48;;;;;;;21.30;2.08;;;;;;;;;;6294449;22;20024;-84
2023/01/13 07:31:16;;;;;;;13.35;1.58;;;;;;;;;;6269522;22;20293;-85
2023/01/13 07:33:42;;;;;;;16.58;2.53;;;;;;;;;;6294239;22;20050;-84
2023/01/13 07:36:08;;;;;;;11.30;2.13;;;;;;;;;;6291950;22;20024;-85
2023/01/13 07:38:35;;;;;;;15.50;2.28;;;;;;;;;;6294270;22;20068;-85
2023/01/13 07:43:46;;;;;;;17.48;2.55;;;;;;;;;;6293510;22;20023;-84
2023/01/13 07:46:13;;;;;;;15.43;3.28;;;;;;;;;;6291713;22;20298;-85
2023/01/13 07:48:39;;;;;;;13.73;2.08;;;;;;;;;;6294399;22;20008;-85
2023/01/13 07:51:07;;;;;;;14.30;2.05;;;;;;;;;;6297261;22;20034;-85
2023/01/13 07:53:33;;;;;;;12.32;2.13;;;;;;;;;;6294891;22;20215;-85
2023/01/13 07:56:00;;;;;;;15.80;2.60;;;;;;;;;;6293482;22;20035;-85
2023/01/13 07:58:27;;;;;;;19.63;2.30;;;;;;;;;;6285730;22;20018;-83
2023/01/13 08:01:11;;;;;;;19.48;3.10;;;;;;;;;;6273428;22;20020;-84
2023/01/13 08:03:38;;;;;;;15.32;2.22;;;;;;;;;;6289147;22;20196;-83
2023/01/13 08:06:05;;;;;;;14.63;1.88;;;;;;;;;;6289758;22;20016;-84
2023/01/13 08:08:32;;;;;;;12.63;1.80;;;;;;;;;;6292858;22;20024;-84
2023/01/13 08:10:59;;;;;;;18.40;2.45;;;;;;;;;;6292343;22;20032;-84
2023/01/13 08:13:25;;;;;;;20.20;2.72;;;;;;;;;;6291249;22;20036;-84
2023/01/13 08:15:53;;;;;;;20.23;2.28;;;;;;;;;;6290420;22;20032;-84
2023/01/13 08:18:21;;;;;;;18.58;2.55;;;;;;;;;;6290342;22;20689;-84
2023/01/13 08:20:48;;;;;;;19.25;2.42;;;;;;;;;;6292085;22;20016;-85
2023/01/13 08:23:14;;;;;;;13.30;1.80;;;;;;;;;;6294629;22;20107;-84
2023/01/13 08:25:41;;;;;;;20.23;2.47;;;;;;;;;;6295339;22;20083;-83
2023/01/13 08:28:07;;;;;;;16.40;2.30;;;;;;;;;;6293385;22;20024;-84
2023/01/13 08:30:34;;;;;;;19.63;2.40;;;;;;;;;;6295231;22;20076;-85
2023/01/13 08:33:00;;;;;;;16.05;2.13;;;;;;;;;;6296871;22;20026;-84
2023/01/13 08:35:27;;;;;;;20.20;2.60;;;;;;;;;;6295244;22;20035;-85
2023/01/13 08:37:53;;;;;;;16.13;2.15;;;;;;;;;;6294885;22;20004;-83
2023/01/13 08:40:21;;;;;;;17.08;2.60;;;;;;;;;;6296449;22;20306;-83
2023/01/13 08:42:47;;;;;;;17.77;2.67;;;;;;;;;;6294924;22;20783;-84
2023/01/13 08:45:16;;;;;;;18.85;3.33;;;;;;;;;;6293331;22;20035;-84
2023/01/13 08:47:43;;;;;;;19.42;2.38;;;;;;;;;;6290447;22;20023;-83
2023/01/13 08:50:18;;;;;;;17.70;2.35;;;;;;;;;;6291127;22;20024;-82
2023/01/13 08:52:45;;;;;;;25.90;2.90;;;;;;;;;;6294695;22;20016;-83
2023/01/13 08:55:12;;;;;;;16.20;2.13;;;;;;;;;;6295072;22;20023;-84
2023/01/13 08:57:38;;;;;;;18.30;2.55;;;;;;;;;;6292502;22;20008;-84
2023/01/13 09:00:05;;;;;;;22.55;2.50;;;;;;;;;;6289357;22;20236;-80
2023/01/13 09:02:32;;;;;;;21.55;2.58;;;;;;;;;;6280444;22;20024;-79
2023/01/13 09:05:02;;;;;;;22.83;3.35;;;;;;;;;;6247250;22;20417;-79
2023/01/13 09:07:40;;;;;;;;;;;;;;;;;;;;;
2023/01/13 09:13:38;;;;;;;18.55;2.33;;;;;;;;;;6247553;22;20024;-81
2023/01/13 09:16:05;;;;;;;16.83;2.47;;;;;;;;;;6288113;22;20166;-82
2023/01/13 09:18:31;;;;;;;20.50;2.90;;;;;;;;;;6288280;22;20582;-82
2023/01/13 09:20:57;;;;;;;22.05;3.25;;;;;;;;;;6286785;22;20024;-82
2023/01/13 09:23:24;;;;;;;16.92;2.10;;;;;;;;;;6288927;22;20076;-82
2023/01/13 09:25:51;;;;;;;20.73;3.22;;;;;;;;;;6264189;22;20012;-83
2023/01/13 09:28:18;;;;;;;18.95;2.40;;;;;;;;;;6291843;22;20024;-81
2023/01/13 09:30:44;;;;;;;14.32;2.20;;;;;;;;;;6263704;22;20012;-82
2023/01/13 09:35:59;;;;;;;13.57;2.20;;;;;;;;;;6289951;22;20052;-82
2023/01/13 09:38:26;;;;;;;11.13;2.25;;;;;;;;;;6264090;22;20008;-82
2023/01/13 09:40:56;;;;;;;25.60;3.45;;;;;;;;;;6263999;22;20143;-82
2023/01/13 09:49:04;;;;;;;15.50;3.55;;;;;;;;;;6289148;22;20091;-82
2023/01/13 09:51:44;;;;;;;18.40;2.45;;;;;;;;;;6291608;22;20021;-83
2023/01/13 09:54:31;;;;;;;19.70;2.33;;;;;;;;;;6293359;22;20113;-81
2023/01/13 09:56:58;;;;;;;21.20;2.42;;;;;;;;;;6266162;22;20012;-81
2023/01/13 09:59:33;;;;;;;19.98;2.75;;;;;;;;;;6267004;22;20020;-82
2023/01/13 10:02:12;;;;;;;21.77;3.10;;;;;;;;;;6290109;22;20016;-80
2023/01/13 10:04:38;;;;;;;16.75;2.80;;;;;;;;;;6294721;22;20020;-82
2023/01/13 10:07:11;;;;;;;19.60;2.42;;;;;;;;;;6293704;22;20008;-81
2023/01/13 10:09:43;;;;;;;13.95;3.00;;;;;;;;;;6293840;22;20034;-82
2023/01/13 10:15:00;;;;;;;16.83;2.53;;;;;;;;;;6292212;22;20028;-81
2023/01/13 10:17:26;;;;;;;15.93;3.08;;;;;;;;;;6294300;22;20039;-82
2023/01/13 10:20:08;;;;;;;18.75;2.00;;;;;;;;;;6294460;22;20024;-82
2023/01/13 10:22:43;;;;;;;18.30;2.42;;;;;;;;;;6293988;22;20048;-82
2023/01/13 10:25:25;;;;;;;16.85;2.65;;;;;;;;;;6293800;22;20047;-82
2023/01/13 10:27:52;;;;;;;17.38;2.70;;;;;;;;;;6290768;22;20012;-82
2023/01/13 10:30:21;;;;;;;16.92;2.35;;;;;;;;;;6292122;22;20016;-81
2023/01/13 10:32:50;;;;;;;19.40;3.33;;;;;;;;;;6288931;22;20013;-81
2023/01/13 10:35:16;;;;;;;15.00;2.83;;;;;;;;;;6289669;22;20004;-81
2023/01/13 10:37:55;;;;;;;18.63;2.17;;;;;;;;;;6292711;22;20008;-80
2023/01/13 10:40:21;;;;;;;17.10;2.55;;;;;;;;;;6293803;22;20019;-81
2023/01/13 10:42:48;;;;;;;20.30;2.47;;;;;;;;;;6294185;22;20019;-81
2023/01/13 10:45:23;;;;;;;13.15;2.28;;;;;;;;;;6291606;22;20042;-81
2023/01/13 10:48:03;;;;;;;17.90;2.78;;;;;;;;;;6292880;22;20023;-81
2023/01/13 10:50:33;;;;;;;16.88;2.50;;;;;;;;;;6293243;22;20020;-82
2023/01/13 10:53:01;;;;;;;14.27;3.17;;;;;;;;;;6292182;22;20039;-81
2023/01/13 10:55:32;;;;;;;22.60;3.45;;;;;;;;;;6287874;22;20028;-81
2023/01/13 10:58:11;;;;;;;17.02;3.15;;;;;;;;;;6292775;22;20024;-82
2023/01/13 11:00:38;;;;;;;15.60;2.65;;;;;;;;;;6291242;22;20019;-81
2023/01/13 11:03:18;;;;;;;17.60;2.42;;;;;;;;;;6291618;22;20019;-83
2023/01/13 11:05:56;;;;;;;20.02;2.67;;;;;;;;;;6258702;22;20142;-80
2023/01/13 11:08:27;;;;;;;18.33;2.70;;;;;;;;;;6279531;22;20547;-80
2023/01/13 11:10:55;;;;;;;19.25;2.80;;;;;;;;;;6280658;22;20087;-80
2023/01/13 11:14:31;;;;;;;18.88;2.88;;;;;;;;;;6283123;22;20067;-80
2023/01/13 11:16:27;;;;;;;15.35;2.92;;;;;;;;;;6285318;22;20039;-79
2023/01/13 11:19:12;;;;;;;24.75;3.05;;;;;;;;;;6287072;22;20035;-80
2023/01/13 11:21:42;;;;;;;16.02;2.40;;;;;;;;;;6284967;22;20016;-80
2023/01/13 11:24:34;;;;;;;16.23;2.65;;;;;;;;;;6285767;22;20029;-80
2023/01/13 11:27:07;;;;;;;12.68;2.08;;;;;;;;;;6241830;22;20020;-80
2023/01/13 11:29:36;;;;;;;9.48;1.92;;;;;;;;;;6285966;22;20536;-80
2023/01/13 11:32:11;;;;;;;14.23;2.40;;;;;;;;;;6282633;22;20020;-80
2023/01/13 11:34:40;;;;;;;17.30;2.15;;;;;;;;;;6284921;22;20012;-80
2023/01/13 11:37:24;;;;;;;14.82;2.00;;;;;;;;;;6284155;22;20039;-80
2023/01/13 11:40:04;;;;;;;11.23;1.50;;;;;;;;;;6286207;22;20456;-80
2023/01/13 11:42:35;;;;;;;12.07;1.67;;;;;;;;;;6258045;22;20024;-80
2023/01/13 11:45:01;;;;;;;12.63;1.95;;;;;;;;;;6285988;22;20034;-80
2023/01/13 11:47:28;;;;;;;13.00;2.28;;;;;;;;;;6285378;22;20347;-79
2023/01/13 11:49:55;;;;;;;16.08;1.98;;;;;;;;;;6258089;22;20020;-79
2023/01/13 11:52:37;;;;;;;16.13;2.10;;;;;;;;;;6258301;22;20024;-80
2023/01/13 11:55:26;;;;;;;13.82;2.08;;;;;;;;;;6284051;22;20024;-80
2023/01/13 11:58:08;;;;;;;20.10;2.30;;;;;;;;;;6284873;22;20059;-80
2023/01/13 12:00:53;;;;;;;9.85;1.33;;;;;;;;;;6262254;22;20055;-80
2023/01/13 12:03:26;;;;;;;14.73;1.70;;;;;;;;;;6278859;22;20095;-80
2023/01/13 12:05:58;;;;;;;12.80;1.67;;;;;;;;;;6278715;22;20005;-80
2023/01/13 12:08:43;;;;;;;11.63;1.75;;;;;;;;;;6275602;22;20151;-82
2023/01/13 12:11:09;;;;;;;15.23;2.45;;;;;;;;;;6274742;22;20082;-79
2023/01/13 12:13:45;;;;;;;16.42;1.73;;;;;;;;;;6276236;22;20024;-79
2023/01/13 12:16:23;;;;;;;14.88;1.80;;;;;;;;;;6277644;22;20020;-79
2023/01/13 12:18:52;;;;;;;13.30;1.98;;;;;;;;;;6285359;22;20673;-80
2023/01/13 12:21:20;;;;;;;12.50;2.00;;;;;;;;;;6288406;22;20024;-80
2023/01/13 12:24:04;;;;;;;12.73;2.17;;;;;;;;;;6286956;22;20078;-80
2023/01/13 12:26:34;;;;;;;14.95;2.35;;;;;;;;;;6286750;22;20017;-79
2023/01/13 12:29:05;;;;;;;16.27;3.90;;;;;;;;;;6288024;22;20495;-80
2023/01/13 12:31:37;;;;;;;18.30;3.92;;;;;;;;;;6282739;22;20129;-80
2023/01/13 12:34:22;;;;;;;35.13;11.00;;;;;;;;;;6285788;22;20024;-80
2023/01/13 12:36:58;;;;;;;15.52;2.28;;;;;;;;;;6285275;22;20027;-80
2023/01/13 12:39:24;;;;;;;12.50;2.38;;;;;;;;;;6282400;22;20099;-80
2023/01/13 12:44:36;;;;;;;16.58;2.92;;;;;;;;;;6286807;22;20016;-80
2023/01/13 12:47:02;;;;;;;16.73;2.20;;;;;;;;;;6284354;22;20020;-80
2023/01/13 12:49:32;;;;;;;16.77;3.15;;;;;;;;;;6284965;22;20066;-80
2023/01/13 12:52:00;;;;;;;13.55;2.80;;;;;;;;;;6284823;22;20023;-80
2023/01/13 12:54:29;;;;;;;9.10;1.98;;;;;;;;;;6282908;22;20020;-80
2023/01/13 12:56:59;;;;;;;12.30;1.83;;;;;;;;;;6283845;22;20063;-80
2023/01/13 12:59:25;;;;;;;10.90;1.77;;;;;;;;;;6285787;22;20039;-80
2023/01/13 13:02:10;;;;;;;9.77;1.77;;;;;;;;;;6287455;22;20254;-80
2023/01/13 13:04:44;;;;;;;14.43;2.35;;;;;;;;;;6283436;22;20020;-80
2023/01/13 13:07:14;;;;;;;14.93;2.65;;;;;;;;;;6255733;22;20028;-79
2023/01/13 13:09:48;;;;;;;12.45;1.80;;;;;;;;;;6276049;22;20020;-80
2023/01/13 13:15:25;;;;;;;16.30;2.20;;;;;;;;;;6275447;22;20024;-80
2023/01/13 13:17:58;;;;;;;10.25;2.35;;;;;;;;;;6275302;22;20222;-80
2023/01/13 13:20:43;;;;;;;13.55;2.42;;;;;;;;;;6285505;22;20024;-80
2023/01/13 13:23:29;;;;;;;10.57;2.17;;;;;;;;;;6258184;22;20075;-80
2023/01/13 13:26:02;;;;;;;9.95;2.08;;;;;;;;;;6204894;22;20024;-80
2023/01/13 13:28:32;;;;;;;12.70;1.70;;;;;;;;;;6254710;22;20705;-80
2023/01/13 13:31:16;;;;;;;13.52;2.08;;;;;;;;;;6284840;22;20673;-80
2023/01/13 13:33:55;;;;;;;11.82;1.73;;;;;;;;;;6260253;22;20024;-80
2023/01/13 13:36:33;;;;;;;8.68;1.65;;;;;;;;;;6286147;22;20031;-80
2023/01/13 13:47:35;;;;;;;5.88;1.10;;;;;;;;;;6282998;22;20655;-81
2023/01/13 13:50:07;;;;;;;12.98;1.90;;;;;;;;;;6284382;22;20019;-80
2023/01/13 13:52:34;;;;;;;10.02;1.38;;;;;;;;;;6288078;22;20070;-80
2023/01/13 13:55:08;;;;;;;7.97;1.30;;;;;;;;;;6285352;22;20035;-81
2023/01/13 13:57:36;;;;;;;4.95;1.27;;;;;;;;;;6259052;22;20328;-81
2023/01/13 14:00:06;;;;;;;13.25;2.90;;;;;;;;;;6281213;22;20028;-80
2023/01/13 14:02:35;;;;;;;10.50;2.10;;;;;;;;;;6284787;22;20047;-80
2023/01/13 14:05:16;;;;;;;8.02;1.88;;;;;;;;;;6283320;22;20128;-80
2023/01/13 14:07:43;;;;;;;12.73;1.88;;;;;;;;;;6286953;22;20034;-80
2023/01/13 14:10:16;;;;;;;11.63;1.70;;;;;;;;;;6285940;22;20067;-81
2023/01/13 14:12:43;;;;;;;13.95;1.90;;;;;;;;;;6286557;22;20529;-80
2023/01/13 14:15:30;;;;;;;14.00;2.25;;;;;;;;;;6257176;22;20091;-80
2023/01/13 14:17:57;;;;;;;6.75;1.85;;;;;;;;;;6255233;22;20008;-80
2023/01/13 14:20:24;;;;;;;8.55;1.48;;;;;;;;;;6251918;22;20016;-81
2023/01/13 14:22:51;;;;;;;14.63;1.60;;;;;;;;;;6286308;22;20052;-80
2023/01/13 14:25:27;;;;;;;19.33;2.42;;;;;;;;;;6286365;22;20035;-80
2023/01/13 14:27:54;;;;;;;19.92;2.20;;;;;;;;;;6288188;22;20838;-80
2023/01/13 14:30:23;;;;;;;11.55;1.60;;;;;;;;;;6285382;22;20009;-80
2023/01/13 14:32:49;;;;;;;18.27;1.92;;;;;;;;;;6286173;22;20012;-80
2023/01/13 14:35:16;;;;;;;9.85;1.63;;;;;;;;;;6285241;22;20024;-80
2023/01/13 14:37:43;;;;;;;7.07;1.45;;;;;;;;;;6286781;22;21067;-80
2023/01/13 14:40:44;;;;;;;16.33;2.08;;;;;;;;;;6259964;22;20016;-80
2023/01/13 14:43:12;;;;;;;9.23;1.60;;;;;;;;;;6180409;22;20039;-80
2023/01/13 14:45:42;;;;;;;11.95;1.60;;;;;;;;;;6286170;22;20043;-80
2023/01/13 14:48:09;;;;;;;17.65;2.00;;;;;;;;;;6261402;22;20068;-81
2023/01/13 14:50:35;;;;;;;12.05;2.03;;;;;;;;;;6287588;22;20050;-80
2023/01/13 14:53:24;;;;;;;10.23;1.65;;;;;;;;;;6287623;22;20021;-80
2023/01/13 14:55:50;;;;;;;13.07;1.90;;;;;;;;;;6287809;22;20012;-80
2023/01/13 14:58:20;;;;;;;12.45;1.83;;;;;;;;;;6287233;22;20110;-80
2023/01/13 15:00:47;;;;;;;10.52;1.73;;;;;;;;;;6268484;22;20024;-80
2023/01/13 15:03:14;;;;;;;8.75;1.73;;;;;;;;;;6285745;22;20068;-80
2023/01/13 15:05:46;;;;;;;15.45;1.67;;;;;;;;;;6287517;22;20009;-81
2023/01/13 15:08:13;;;;;;;16.35;2.00;;;;;;;;;;6288555;22;20481;-81
2023/01/13 15:10:59;;;;;;;13.93;2.22;;;;;;;;;;6288522;22;20072;-80
2023/01/13 15:13:28;;;;;;;13.63;1.83;;;;;;;;;;6289997;22;20032;-80
2023/01/13 15:15:55;;;;;;;11.88;2.08;;;;;;;;;;6290154;22;20072;-81
2023/01/13 15:18:22;;;;;;;17.00;2.17;;;;;;;;;;6287682;22;20016;-80
2023/01/13 15:20:51;;;;;;;10.32;1.98;;;;;;;;;;6286280;22;20019;-80
2023/01/13 15:23:18;;;;;;;11.05;1.75;;;;;;;;;;6289243;22;20027;-81
2023/01/13 15:25:46;;;;;;;9.15;2.22;;;;;;;;;;6287445;22;20016;-80
2023/01/13 15:28:15;;;;;;;10.98;1.90;;;;;;;;;;6287321;22;20012;-80
2023/01/13 15:30:41;;;;;;;7.22;1.30;;;;;;;;;;6287570;22;20059;-80
2023/01/13 15:33:09;;;;;;;14.98;1.70;;;;;;;;;;6287102;22;20055;-80
2023/01/13 15:35:36;;;;;;;12.27;1.70;;;;;;;;;;6287927;22;20016;-80
2023/01/13 15:38:07;;;;;;;12.50;1.67;;;;;;;;;;6288197;22;20008;-81
2023/01/13 15:40:34;;;;;;;14.98;1.73;;;;;;;;;;6287234;22;20031;-80
2023/01/13 15:48:31;;;;;;;12.38;2.03;;;;;;;;;;6288596;22;20008;-80
2023/01/13 15:50:59;;;;;;;11.88;1.70;;;;;;;;;;6286899;22;20508;-80
2023/01/13 15:53:26;;;;;;;13.32;1.50;;;;;;;;;;6288139;22;20677;-80
2023/01/13 15:55:55;;;;;;;20.23;2.03;;;;;;;;;;6287646;22;20064;-80
2023/01/13 15:58:24;;;;;;;11.18;2.00;;;;;;;;;;6288413;22;20026;-80
2023/01/13 16:00:53;;;;;;;11.32;1.92;;;;;;;;;;6285000;22;20223;-80
2023/01/13 16:03:19;;;;;;;10.10;1.45;;;;;;;;;;6286552;22;20027;-80